sensor_id;sensor_type;location;lat;lon;timestamp;temperature;humidity
39865;DHT22;25538;48.392;9.976;2022-07-23T00:00:34;23.90;96.50
39865;DHT22;25538;48.392;9.976;2022-07-23T00:02:59;23.90;98.90
39865;DHT22;25538;48.392;9.976;2022-07-23T00:05:25;23.90;99.90
39865;DHT22;25538;48.392;9.976;2022-07-23T00:07:51;23.80;99.90
39865;DHT22;25538;48.392;9.976;2022-07-23T00:10:18;23.80;99.90
39865;DHT22;25538;48.392;9.976;2022-07-23T00:12:43;23.70;99.90
39865;DHT22;25538;48.392;9.976;2022-07-23T00:15:10;23.80;99.90
39865;DHT22;25538;48.392;9.976;2022-07-23T00:17:36;23.80;99.90
39865;DHT22;25538;48.392;9.976;2022-07-23T00:20:02;23.70;99.90
39865;DHT22;25538;48.392;9.976;2022-07-23T00:22:28;23.70;99.90
39865;DHT22;25538;48.392;9.976;2022-07-23T00:24:55;23.70;99.90
39865;DHT22;25538;48.392;9.976;2022-07-23T00:27:22;23.60;99.90
39865;DHT22;25538;48.392;9.976;2022-07-23T00:29:48;23.40;99.90
39865;DHT22;25538;48.392;9.976;2022-07-23T00:32:14;23.50;99.90
39865;DHT22;25538;48.392;9.976;2022-07-23T00:34:40;23.60;99.90
39865;DHT22;25538;48.392;9.976;2022-07-23T00:37:05;23.60;99.90
39865;DHT22;25538;48.392;9.976;2022-07-23T00:39:31;23.50;99.90
39865;DHT22;25538;48.392;9.976;2022-07-23T00:41:57;23.40;99.90
39865;DHT22;25538;48.392;9.976;2022-07-23T00:44:25;23.40;99.90
39865;DHT22;25538;48.392;9.976;2022-07-23T00:46:56;23.40;99.90
39865;DHT22;25538;48.392;9.976;2022-07-23T00:49:24;23.30;99.90
39865;DHT22;25538;48.392;9.976;2022-07-23T00:51:51;23.00;99.90
39865;DHT22;25538;48.392;9.976;2022-07-23T00:54:19;22.80;99.90
39865;DHT22;25538;48.392;9.976;2022-07-23T00:56:45;22.60;99.90
39865;DHT22;25538;48.392;9.976;2022-07-23T00:59:12;22.30;99.90
39865;DHT22;25538;48.392;9.976;2022-07-23T01:01:39;22.30;99.90
39865;DHT22;25538;48.392;9.976;2022-07-23T01:04:06;22.30;99.90
39865;DHT22;25538;48.392;9.976;2022-07-23T01:06:37;22.30;99.90
39865;DHT22;25538;48.392;9.976;2022-07-23T01:09:05;22.40;99.90
39865;DHT22;25538;48.392;9.976;2022-07-23T01:11:35;22.30;99.90
39865;DHT22;25538;48.392;9.976;2022-07-23T01:14:11;22.20;99.90
39865;DHT22;25538;48.392;9.976;2022-07-23T01:16:38;22.20;99.90
39865;DHT22;25538;48.392;9.976;2022-07-23T01:19:04;22.00;99.90
39865;DHT22;25538;48.392;9.976;2022-07-23T01:21:36;21.90;99.90
39865;DHT22;25538;48.392;9.976;2022-07-23T01:24:03;22.00;99.90
39865;DHT22;25538;48.392;9.976;2022-07-23T01:26:29;22.10;99.90
39865;DHT22;25538;48.392;9.976;2022-07-23T01:28:55;22.10;99.90
39865;DHT22;25538;48.392;9.976;2022-07-23T01:31:21;22.20;99.90
39865;DHT22;25538;48.392;9.976;2022-07-23T01:33:48;22.30;99.90
39865;DHT22;25538;48.392;9.976;2022-07-23T01:36:14;22.40;99.90
39865;DHT22;25538;48.392;9.976;2022-07-23T01:38:40;22.50;99.90
39865;DHT22;25538;48.392;9.976;2022-07-23T01:41:06;22.60;99.90
39865;DHT22;25538;48.392;9.976;2022-07-23T01:43:32;22.70;99.90
39865;DHT22;25538;48.392;9.976;2022-07-23T01:45:58;22.60;99.90
39865;DHT22;25538;48.392;9.976;2022-07-23T01:48:24;22.60;99.90
39865;DHT22;25538;48.392;9.976;2022-07-23T01:50:49;22.50;99.90
39865;DHT22;25538;48.392;9.976;2022-07-23T01:53:15;22.50;99.90
39865;DHT22;25538;48.392;9.976;2022-07-23T01:55:42;22.30;99.90
39865;DHT22;25538;48.392;9.976;2022-07-23T01:58:08;22.20;99.90
39865;DHT22;25538;48.392;9.976;2022-07-23T02:00:34;22.20;99.90
39865;DHT22;25538;48.392;9.976;2022-07-23T02:03:00;22.30;99.90
39865;DHT22;25538;48.392;9.976;2022-07-23T02:05:26;22.30;99.90
39865;DHT22;25538;48.392;9.976;2022-07-23T02:07:54;22.30;99.90
39865;DHT22;25538;48.392;9.976;2022-07-23T02:10:21;22.40;99.90
39865;DHT22;25538;48.392;9.976;2022-07-23T02:12:46;22.30;99.90
39865;DHT22;25538;48.392;9.976;2022-07-23T02:15:13;22.10;99.90
39865;DHT22;25538;48.392;9.976;2022-07-23T02:17:39;22.00;99.90
39865;DHT22;25538;48.392;9.976;2022-07-23T02:20:06;22.00;99.90
39865;DHT22;25538;48.392;9.976;2022-07-23T02:22:32;22.00;99.90
39865;DHT22;25538;48.392;9.976;2022-07-23T02:24:58;22.00;99.90
39865;DHT22;25538;48.392;9.976;2022-07-23T02:27:24;21.80;99.90
39865;DHT22;25538;48.392;9.976;2022-07-23T02:29:50;21.60;99.90
39865;DHT22;25538;48.392;9.976;2022-07-23T02:32:16;21.50;99.90
39865;DHT22;25538;48.392;9.976;2022-07-23T02:34:42;21.40;99.90
39865;DHT22;25538;48.392;9.976;2022-07-23T02:37:08;21.30;99.90
39865;DHT22;25538;48.392;9.976;2022-07-23T02:39:35;21.20;99.90
39865;DHT22;25538;48.392;9.976;2022-07-23T02:42:02;21.30;99.90
39865;DHT22;25538;48.392;9.976;2022-07-23T02:44:27;21.40;99.90
39865;DHT22;25538;48.392;9.976;2022-07-23T02:46:53;21.50;99.90
39865;DHT22;25538;48.392;9.976;2022-07-23T02:49:19;21.60;99.90
39865;DHT22;25538;48.392;9.976;2022-07-23T02:51:45;21.60;99.90
39865;DHT22;25538;48.392;9.976;2022-07-23T02:54:11;21.70;99.90
39865;DHT22;25538;48.392;9.976;2022-07-23T02:56:37;21.70;99.90
39865;DHT22;25538;48.392;9.976;2022-07-23T02:59:03;21.80;99.90
39865;DHT22;25538;48.392;9.976;2022-07-23T03:01:29;21.70;99.90
39865;DHT22;25538;48.392;9.976;2022-07-23T03:03:54;21.70;99.90
39865;DHT22;25538;48.392;9.976;2022-07-23T03:06:20;21.60;99.90
39865;DHT22;25538;48.392;9.976;2022-07-23T03:08:46;21.40;99.90
39865;DHT22;25538;48.392;9.976;2022-07-23T03:11:12;21.40;99.90
39865;DHT22;25538;48.392;9.976;2022-07-23T03:13:39;21.40;99.90
39865;DHT22;25538;48.392;9.976;2022-07-23T03:16:06;21.50;99.90
39865;DHT22;25538;48.392;9.976;2022-07-23T03:18:32;21.60;99.90
39865;DHT22;25538;48.392;9.976;2022-07-23T03:20:59;21.70;99.90
39865;DHT22;25538;48.392;9.976;2022-07-23T03:23:25;21.60;99.90
39865;DHT22;25538;48.392;9.976;2022-07-23T03:25:51;21.40;99.90
39865;DHT22;25538;48.392;9.976;2022-07-23T03:28:18;21.30;99.90
39865;DHT22;25538;48.392;9.976;2022-07-23T03:30:44;21.30;99.90
39865;DHT22;25538;48.392;9.976;2022-07-23T03:33:15;21.20;99.90
39865;DHT22;25538;48.392;9.976;2022-07-23T03:35:43;21.20;99.90
39865;DHT22;25538;48.392;9.976;2022-07-23T03:38:09;21.20;99.90
39865;DHT22;25538;48.392;9.976;2022-07-23T03:40:35;21.20;99.90
39865;DHT22;25538;48.392;9.976;2022-07-23T03:43:01;21.20;99.90
39865;DHT22;25538;48.392;9.976;2022-07-23T03:45:27;21.10;99.90
39865;DHT22;25538;48.392;9.976;2022-07-23T03:47:53;21.10;99.90
39865;DHT22;25538;48.392;9.976;2022-07-23T03:50:19;21.20;99.90
39865;DHT22;25538;48.392;9.976;2022-07-23T03:52:45;21.30;99.90
39865;DHT22;25538;48.392;9.976;2022-07-23T03:55:11;21.30;99.90
39865;DHT22;25538;48.392;9.976;2022-07-23T03:57:37;21.30;99.90
39865;DHT22;25538;48.392;9.976;2022-07-23T04:00:05;21.20;99.90
39865;DHT22;25538;48.392;9.976;2022-07-23T04:02:32;21.00;99.90
39865;DHT22;25538;48.392;9.976;2022-07-23T04:04:58;21.00;99.90
39865;DHT22;25538;48.392;9.976;2022-07-23T04:07:25;21.10;99.90
39865;DHT22;25538;48.392;9.976;2022-07-23T04:09:51;21.10;99.90
39865;DHT22;25538;48.392;9.976;2022-07-23T04:12:17;21.10;99.90
39865;DHT22;25538;48.392;9.976;2022-07-23T04:14:42;21.20;99.90
39865;DHT22;25538;48.392;9.976;2022-07-23T04:17:08;21.10;99.90
39865;DHT22;25538;48.392;9.976;2022-07-23T04:19:34;20.90;99.90
39865;DHT22;25538;48.392;9.976;2022-07-23T04:22:06;20.90;99.90
39865;DHT22;25538;48.392;9.976;2022-07-23T04:24:32;20.90;99.90
39865;DHT22;25538;48.392;9.976;2022-07-23T04:26:58;21.00;99.90
39865;DHT22;25538;48.392;9.976;2022-07-23T04:29:24;20.90;99.90
39865;DHT22;25538;48.392;9.976;2022-07-23T04:31:50;20.80;99.90
39865;DHT22;25538;48.392;9.976;2022-07-23T04:34:17;20.80;99.90
39865;DHT22;25538;48.392;9.976;2022-07-23T04:36:43;20.90;99.90
39865;DHT22;25538;48.392;9.976;2022-07-23T04:39:09;21.00;99.90
39865;DHT22;25538;48.392;9.976;2022-07-23T04:41:35;21.10;99.90
39865;DHT22;25538;48.392;9.976;2022-07-23T04:44:02;21.20;99.90
39865;DHT22;25538;48.392;9.976;2022-07-23T04:46:28;21.30;99.90
39865;DHT22;25538;48.392;9.976;2022-07-23T04:48:54;21.30;99.90
39865;DHT22;25538;48.392;9.976;2022-07-23T04:51:20;21.20;99.90
39865;DHT22;25538;48.392;9.976;2022-07-23T04:53:46;21.20;99.90
39865;DHT22;25538;48.392;9.976;2022-07-23T04:56:12;21.20;99.90
39865;DHT22;25538;48.392;9.976;2022-07-23T04:58:38;21.20;99.90
39865;DHT22;25538;48.392;9.976;2022-07-23T05:01:04;21.20;99.90
39865;DHT22;25538;48.392;9.976;2022-07-23T05:03:30;21.10;99.90
39865;DHT22;25538;48.392;9.976;2022-07-23T05:05:56;21.20;99.90
39865;DHT22;25538;48.392;9.976;2022-07-23T05:08:22;21.30;99.90
39865;DHT22;25538;48.392;9.976;2022-07-23T05:10:48;21.50;99.90
39865;DHT22;25538;48.392;9.976;2022-07-23T05:13:15;21.50;99.90
39865;DHT22;25538;48.392;9.976;2022-07-23T05:15:42;21.50;99.90
39865;DHT22;25538;48.392;9.976;2022-07-23T05:18:09;21.30;99.90
39865;DHT22;25538;48.392;9.976;2022-07-23T05:20:35;21.20;99.90
39865;DHT22;25538;48.392;9.976;2022-07-23T05:23:01;21.10;99.90
39865;DHT22;25538;48.392;9.976;2022-07-23T05:25:27;21.00;99.90
39865;DHT22;25538;48.392;9.976;2022-07-23T05:27:53;20.90;99.90
39865;DHT22;25538;48.392;9.976;2022-07-23T05:30:19;20.50;99.90
39865;DHT22;25538;48.392;9.976;2022-07-23T05:32:45;19.80;99.90
39865;DHT22;25538;48.392;9.976;2022-07-23T05:35:11;19.30;99.90
39865;DHT22;25538;48.392;9.976;2022-07-23T05:37:37;19.40;99.90
39865;DHT22;25538;48.392;9.976;2022-07-23T05:40:05;19.60;99.90
39865;DHT22;25538;48.392;9.976;2022-07-23T05:42:34;20.00;99.90
39865;DHT22;25538;48.392;9.976;2022-07-23T05:45:00;20.20;99.90
39865;DHT22;25538;48.392;9.976;2022-07-23T05:47:27;19.80;99.90
39865;DHT22;25538;48.392;9.976;2022-07-23T05:49:53;19.60;99.90
39865;DHT22;25538;48.392;9.976;2022-07-23T05:52:19;19.50;99.90
39865;DHT22;25538;48.392;9.976;2022-07-23T05:54:45;19.50;99.90
39865;DHT22;25538;48.392;9.976;2022-07-23T05:57:11;19.60;99.90
39865;DHT22;25538;48.392;9.976;2022-07-23T05:59:37;19.80;99.90
39865;DHT22;25538;48.392;9.976;2022-07-23T06:02:03;19.90;99.90
39865;DHT22;25538;48.392;9.976;2022-07-23T06:04:29;20.20;99.90
39865;DHT22;25538;48.392;9.976;2022-07-23T06:06:54;20.40;99.90
39865;DHT22;25538;48.392;9.976;2022-07-23T06:09:20;20.50;99.90
39865;DHT22;25538;48.392;9.976;2022-07-23T06:11:46;20.40;99.90
39865;DHT22;25538;48.392;9.976;2022-07-23T06:14:12;20.40;99.90
39865;DHT22;25538;48.392;9.976;2022-07-23T06:16:38;20.60;99.90
39865;DHT22;25538;48.392;9.976;2022-07-23T06:19:04;20.70;99.90
39865;DHT22;25538;48.392;9.976;2022-07-23T06:21:30;20.80;99.90
39865;DHT22;25538;48.392;9.976;2022-07-23T06:23:56;21.10;99.90
39865;DHT22;25538;48.392;9.976;2022-07-23T06:26:21;21.20;99.90
39865;DHT22;25538;48.392;9.976;2022-07-23T06:28:47;21.40;99.90
39865;DHT22;25538;48.392;9.976;2022-07-23T06:31:13;21.50;99.90
39865;DHT22;25538;48.392;9.976;2022-07-23T06:33:39;21.50;99.90
39865;DHT22;25538;48.392;9.976;2022-07-23T06:36:05;21.50;99.90
39865;DHT22;25538;48.392;9.976;2022-07-23T06:38:31;21.60;99.90
39865;DHT22;25538;48.392;9.976;2022-07-23T06:40:57;21.60;99.90
39865;DHT22;25538;48.392;9.976;2022-07-23T06:43:23;21.60;99.90
39865;DHT22;25538;48.392;9.976;2022-07-23T06:45:49;21.70;99.90
39865;DHT22;25538;48.392;9.976;2022-07-23T06:48:15;21.70;99.90
39865;DHT22;25538;48.392;9.976;2022-07-23T06:50:41;21.70;99.90
39865;DHT22;25538;48.392;9.976;2022-07-23T06:53:06;21.60;99.90
39865;DHT22;25538;48.392;9.976;2022-07-23T06:55:32;21.60;99.90
39865;DHT22;25538;48.392;9.976;2022-07-23T06:58:01;21.60;99.90
39865;DHT22;25538;48.392;9.976;2022-07-23T07:00:27;21.60;99.90
39865;DHT22;25538;48.392;9.976;2022-07-23T07:02:54;21.60;99.90
39865;DHT22;25538;48.392;9.976;2022-07-23T07:05:20;21.50;99.90
39865;DHT22;25538;48.392;9.976;2022-07-23T07:07:46;21.70;99.90
39865;DHT22;25538;48.392;9.976;2022-07-23T07:10:12;21.90;99.90
39865;DHT22;25538;48.392;9.976;2022-07-23T07:12:38;21.90;99.90
39865;DHT22;25538;48.392;9.976;2022-07-23T07:15:04;22.00;99.90
39865;DHT22;25538;48.392;9.976;2022-07-23T07:17:30;21.80;99.90
39865;DHT22;25538;48.392;9.976;2022-07-23T07:19:56;22.10;99.90
39865;DHT22;25538;48.392;9.976;2022-07-23T07:22:22;22.30;99.90
39865;DHT22;25538;48.392;9.976;2022-07-23T07:24:48;22.20;99.90
39865;DHT22;25538;48.392;9.976;2022-07-23T07:27:14;22.20;99.90
39865;DHT22;25538;48.392;9.976;2022-07-23T07:29:40;22.20;99.90
39865;DHT22;25538;48.392;9.976;2022-07-23T07:32:06;22.20;99.90
39865;DHT22;25538;48.392;9.976;2022-07-23T07:34:32;22.40;99.90
39865;DHT22;25538;48.392;9.976;2022-07-23T07:36:58;22.60;99.90
39865;DHT22;25538;48.392;9.976;2022-07-23T07:39:24;22.80;99.90
39865;DHT22;25538;48.392;9.976;2022-07-23T07:41:50;23.10;99.90
39865;DHT22;25538;48.392;9.976;2022-07-23T07:44:16;23.30;99.90
39865;DHT22;25538;48.392;9.976;2022-07-23T07:46:42;23.30;99.90
39865;DHT22;25538;48.392;9.976;2022-07-23T07:49:08;23.50;99.90
39865;DHT22;25538;48.392;9.976;2022-07-23T07:51:34;23.90;99.90
39865;DHT22;25538;48.392;9.976;2022-07-23T07:54:00;24.20;99.90
39865;DHT22;25538;48.392;9.976;2022-07-23T07:56:26;24.10;99.90
39865;DHT22;25538;48.392;9.976;2022-07-23T07:58:52;24.20;99.90
39865;DHT22;25538;48.392;9.976;2022-07-23T08:01:18;24.50;99.90
39865;DHT22;25538;48.392;9.976;2022-07-23T08:03:45;24.70;99.90
39865;DHT22;25538;48.392;9.976;2022-07-23T08:06:12;24.90;99.90
39865;DHT22;25538;48.392;9.976;2022-07-23T08:08:38;24.90;99.90
39865;DHT22;25538;48.392;9.976;2022-07-23T08:11:04;25.40;99.90
39865;DHT22;25538;48.392;9.976;2022-07-23T08:13:30;25.80;99.90
39865;DHT22;25538;48.392;9.976;2022-07-23T08:15:56;26.20;99.90
39865;DHT22;25538;48.392;9.976;2022-07-23T08:18:22;26.40;99.90
39865;DHT22;25538;48.392;9.976;2022-07-23T08:20:48;26.20;99.90
39865;DHT22;25538;48.392;9.976;2022-07-23T08:23:14;25.70;99.90
39865;DHT22;25538;48.392;9.976;2022-07-23T08:25:41;25.70;99.90
39865;DHT22;25538;48.392;9.976;2022-07-23T08:28:12;25.70;99.90
39865;DHT22;25538;48.392;9.976;2022-07-23T08:30:40;25.70;99.90
39865;DHT22;25538;48.392;9.976;2022-07-23T08:33:11;25.50;99.90
39865;DHT22;25538;48.392;9.976;2022-07-23T08:35:40;25.80;99.90
39865;DHT22;25538;48.392;9.976;2022-07-23T08:38:08;26.20;99.90
39865;DHT22;25538;48.392;9.976;2022-07-23T08:40:39;26.70;99.90
39865;DHT22;25538;48.392;9.976;2022-07-23T08:43:08;26.90;99.90
39865;DHT22;25538;48.392;9.976;2022-07-23T08:45:39;26.70;99.90
39865;DHT22;25538;48.392;9.976;2022-07-23T08:48:08;26.30;99.90
39865;DHT22;25538;48.392;9.976;2022-07-23T08:50:35;26.50;99.90
39865;DHT22;25538;48.392;9.976;2022-07-23T08:53:07;26.70;99.90
39865;DHT22;25538;48.392;9.976;2022-07-23T08:55:33;26.20;99.90
39865;DHT22;25538;48.392;9.976;2022-07-23T08:58:00;25.90;99.90
39865;DHT22;25538;48.392;9.976;2022-07-23T09:00:27;25.60;99.90
39865;DHT22;25538;48.392;9.976;2022-07-23T09:02:53;25.30;99.90
39865;DHT22;25538;48.392;9.976;2022-07-23T09:05:19;25.30;99.90
39865;DHT22;25538;48.392;9.976;2022-07-23T09:08:08;25.20;99.90
39865;DHT22;25538;48.392;9.976;2022-07-23T09:16:08;25.80;99.90
39865;DHT22;25538;48.392;9.976;2022-07-23T09:21:22;26.30;99.90
39865;DHT22;25538;48.392;9.976;2022-07-23T09:24:00;26.60;99.90
39865;DHT22;25538;48.392;9.976;2022-07-23T09:26:43;26.70;99.90
39865;DHT22;25538;48.392;9.976;2022-07-23T09:29:17;27.20;99.90
39865;DHT22;25538;48.392;9.976;2022-07-23T09:34:19;27.60;99.90
39865;DHT22;25538;48.392;9.976;2022-07-23T09:36:46;27.70;99.90
39865;DHT22;25538;48.392;9.976;2022-07-23T09:39:14;28.40;99.90
39865;DHT22;25538;48.392;9.976;2022-07-23T09:41:43;29.30;99.90
39865;DHT22;25538;48.392;9.976;2022-07-23T09:44:17;29.80;99.90
39865;DHT22;25538;48.392;9.976;2022-07-23T09:46:48;29.10;99.90
39865;DHT22;25538;48.392;9.976;2022-07-23T09:49:22;28.30;99.90
39865;DHT22;25538;48.392;9.976;2022-07-23T09:51:54;28.30;99.90
39865;DHT22;25538;48.392;9.976;2022-07-23T09:54:33;28.20;99.90
39865;DHT22;25538;48.392;9.976;2022-07-23T09:59:34;28.00;99.90
39865;DHT22;25538;48.392;9.976;2022-07-23T10:02:01;28.70;99.90
39865;DHT22;25538;48.392;9.976;2022-07-23T10:04:29;28.50;99.90
39865;DHT22;25538;48.392;9.976;2022-07-23T10:06:57;28.90;99.90
39865;DHT22;25538;48.392;9.976;2022-07-23T10:09:29;30.00;99.90
39865;DHT22;25538;48.392;9.976;2022-07-23T10:11:57;31.00;99.90
39865;DHT22;25538;48.392;9.976;2022-07-23T10:14:47;31.30;99.90
39865;DHT22;25538;48.392;9.976;2022-07-23T10:17:14;31.70;99.80
39865;DHT22;25538;48.392;9.976;2022-07-23T10:19:40;30.90;99.30
39865;DHT22;25538;48.392;9.976;2022-07-23T10:22:13;29.60;99.90
39865;DHT22;25538;48.392;9.976;2022-07-23T10:30:11;27.90;99.90
39865;DHT22;25538;48.392;9.976;2022-07-23T10:38:43;28.40;99.90
39865;DHT22;25538;48.392;9.976;2022-07-23T10:41:14;30.30;99.90
39865;DHT22;25538;48.392;9.976;2022-07-23T10:43:40;30.70;99.90
39865;DHT22;25538;48.392;9.976;2022-07-23T10:46:23;30.60;99.90
39865;DHT22;25538;48.392;9.976;2022-07-23T10:49:30;30.40;99.80
39865;DHT22;25538;48.392;9.976;2022-07-23T10:54:44;32.00;97.10
39865;DHT22;25538;48.392;9.976;2022-07-23T10:57:12;32.90;94.40
39865;DHT22;25538;48.392;9.976;2022-07-23T11:02:32;33.60;90.90
39865;DHT22;25538;48.392;9.976;2022-07-23T11:05:06;33.90;89.00
39865;DHT22;25538;48.392;9.976;2022-07-23T11:07:35;34.40;85.80
39865;DHT22;25538;48.392;9.976;2022-07-23T11:10:01;33.70;85.40
39865;DHT22;25538;48.392;9.976;2022-07-23T11:25:34;35.30;77.30
39865;DHT22;25538;48.392;9.976;2022-07-23T11:28:19;35.00;75.50
39865;DHT22;25538;48.392;9.976;2022-07-23T11:30:51;35.30;74.30
39865;DHT22;25538;48.392;9.976;2022-07-23T11:33:19;35.80;72.40
39865;DHT22;25538;48.392;9.976;2022-07-23T11:36:00;36.10;70.10
39865;DHT22;25538;48.392;9.976;2022-07-23T11:38:30;36.90;67.50
39865;DHT22;25538;48.392;9.976;2022-07-23T11:40:57;37.60;65.20
39865;DHT22;25538;48.392;9.976;2022-07-23T11:43:24;38.20;61.10
39865;DHT22;25538;48.392;9.976;2022-07-23T11:45:53;38.40;60.00
39865;DHT22;25538;48.392;9.976;2022-07-23T11:48:28;38.40;57.50
39865;DHT22;25538;48.392;9.976;2022-07-23T11:50:55;36.90;59.40
39865;DHT22;25538;48.392;9.976;2022-07-23T11:53:26;35.00;63.70
39865;DHT22;25538;48.392;9.976;2022-07-23T11:55:52;32.80;70.10
39865;DHT22;25538;48.392;9.976;2022-07-23T11:58:18;31.10;76.60
39865;DHT22;25538;48.392;9.976;2022-07-23T12:00:44;29.80;86.00
39865;DHT22;25538;48.392;9.976;2022-07-23T12:03:10;28.70;92.50
39865;DHT22;25538;48.392;9.976;2022-07-23T12:05:38;27.70;99.90
39865;DHT22;25538;48.392;9.976;2022-07-23T12:08:06;25.40;99.90
39865;DHT22;25538;48.392;9.976;2022-07-23T12:10:43;24.00;99.90
39865;DHT22;25538;48.392;9.976;2022-07-23T12:13:13;23.10;99.90
39865;DHT22;25538;48.392;9.976;2022-07-23T12:15:43;22.60;99.90
39865;DHT22;25538;48.392;9.976;2022-07-23T12:18:12;21.50;99.90
39865;DHT22;25538;48.392;9.976;2022-07-23T12:20:44;20.80;99.90
39865;DHT22;25538;48.392;9.976;2022-07-23T12:23:12;21.10;99.90
39865;DHT22;25538;48.392;9.976;2022-07-23T12:25:41;21.90;99.90
39865;DHT22;25538;48.392;9.976;2022-07-23T12:28:12;21.80;99.90
39865;DHT22;25538;48.392;9.976;2022-07-23T12:33:21;23.90;99.90
39865;DHT22;25538;48.392;9.976;2022-07-23T12:35:47;24.70;99.90
39865;DHT22;25538;48.392;9.976;2022-07-23T12:38:18;27.60;99.90
39865;DHT22;25538;48.392;9.976;2022-07-23T12:43:30;29.90;99.90
39865;DHT22;25538;48.392;9.976;2022-07-23T12:45:57;30.30;99.90
39865;DHT22;25538;48.392;9.976;2022-07-23T12:56:28;31.00;99.90
39865;DHT22;25538;48.392;9.976;2022-07-23T12:59:08;30.20;99.90
39865;DHT22;25538;48.392;9.976;2022-07-23T13:01:39;30.00;99.90
39865;DHT22;25538;48.392;9.976;2022-07-23T13:04:06;30.40;99.90
39865;DHT22;25538;48.392;9.976;2022-07-23T13:06:35;31.50;99.90
39865;DHT22;25538;48.392;9.976;2022-07-23T13:09:04;31.00;99.90
39865;DHT22;25538;48.392;9.976;2022-07-23T13:11:30;31.10;99.90
39865;DHT22;25538;48.392;9.976;2022-07-23T13:13:56;30.80;99.90
39865;DHT22;25538;48.392;9.976;2022-07-23T13:16:22;30.00;99.90
39865;DHT22;25538;48.392;9.976;2022-07-23T13:18:48;29.60;99.90
39865;DHT22;25538;48.392;9.976;2022-07-23T13:21:15;29.00;99.90
39865;DHT22;25538;48.392;9.976;2022-07-23T13:23:42;28.30;99.90
39865;DHT22;25538;48.392;9.976;2022-07-23T13:26:08;27.90;99.90
39865;DHT22;25538;48.392;9.976;2022-07-23T13:28:34;27.70;99.90
39865;DHT22;25538;48.392;9.976;2022-07-23T13:31:00;27.60;99.90
39865;DHT22;25538;48.392;9.976;2022-07-23T13:33:26;27.40;99.90
39865;DHT22;25538;48.392;9.976;2022-07-23T13:35:53;27.30;99.90
39865;DHT22;25538;48.392;9.976;2022-07-23T13:38:20;27.10;99.90
39865;DHT22;25538;48.392;9.976;2022-07-23T13:40:48;27.20;99.90
39865;DHT22;25538;48.392;9.976;2022-07-23T13:43:17;27.50;99.90
39865;DHT22;25538;48.392;9.976;2022-07-23T13:45:44;28.50;99.90
39865;DHT22;25538;48.392;9.976;2022-07-23T13:48:12;30.20;99.90
39865;DHT22;25538;48.392;9.976;2022-07-23T13:50:39;31.90;99.90
39865;DHT22;25538;48.392;9.976;2022-07-23T13:53:12;33.60;99.90
39865;DHT22;25538;48.392;9.976;2022-07-23T13:55:39;35.00;94.70
39865;DHT22;25538;48.392;9.976;2022-07-23T13:58:05;35.60;91.40
39865;DHT22;25538;48.392;9.976;2022-07-23T14:00:33;35.60;86.60
39865;DHT22;25538;48.392;9.976;2022-07-23T14:03:01;34.40;90.00
39865;DHT22;25538;48.392;9.976;2022-07-23T14:05:27;33.30;92.50
39865;DHT22;25538;48.392;9.976;2022-07-23T14:07:53;32.60;92.40
39865;DHT22;25538;48.392;9.976;2022-07-23T14:10:20;31.80;93.80
39865;DHT22;25538;48.392;9.976;2022-07-23T14:12:47;30.80;96.50
39865;DHT22;25538;48.392;9.976;2022-07-23T14:15:14;29.70;96.40
39865;DHT22;25538;48.392;9.976;2022-07-23T14:17:42;29.00;99.60
39865;DHT22;25538;48.392;9.976;2022-07-23T14:20:09;28.60;99.90
39865;DHT22;25538;48.392;9.976;2022-07-23T14:22:36;28.10;99.90
39865;DHT22;25538;48.392;9.976;2022-07-23T14:25:04;27.70;99.90
39865;DHT22;25538;48.392;9.976;2022-07-23T14:27:31;27.50;99.90
39865;DHT22;25538;48.392;9.976;2022-07-23T14:29:57;27.50;99.90
39865;DHT22;25538;48.392;9.976;2022-07-23T14:32:23;27.30;99.90
39865;DHT22;25538;48.392;9.976;2022-07-23T14:34:49;27.50;99.90
39865;DHT22;25538;48.392;9.976;2022-07-23T14:37:15;27.80;99.90
39865;DHT22;25538;48.392;9.976;2022-07-23T14:39:42;27.90;99.90
39865;DHT22;25538;48.392;9.976;2022-07-23T14:42:09;27.90;99.90
39865;DHT22;25538;48.392;9.976;2022-07-23T14:44:36;28.10;99.90
39865;DHT22;25538;48.392;9.976;2022-07-23T14:47:03;28.00;99.90
39865;DHT22;25538;48.392;9.976;2022-07-23T14:49:33;27.80;99.90
39865;DHT22;25538;48.392;9.976;2022-07-23T14:51:59;27.90;99.90
39865;DHT22;25538;48.392;9.976;2022-07-23T14:54:26;27.50;99.90
39865;DHT22;25538;48.392;9.976;2022-07-23T14:56:54;27.50;99.90
39865;DHT22;25538;48.392;9.976;2022-07-23T14:59:20;27.60;99.90
39865;DHT22;25538;48.392;9.976;2022-07-23T15:01:46;27.60;99.90
39865;DHT22;25538;48.392;9.976;2022-07-23T15:04:12;27.70;99.90
39865;DHT22;25538;48.392;9.976;2022-07-23T15:06:38;27.70;99.90
39865;DHT22;25538;48.392;9.976;2022-07-23T15:09:05;27.60;99.90
39865;DHT22;25538;48.392;9.976;2022-07-23T15:11:31;28.00;99.90
39865;DHT22;25538;48.392;9.976;2022-07-23T15:14:00;28.70;99.90
39865;DHT22;25538;48.392;9.976;2022-07-23T15:16:27;29.10;99.90
39865;DHT22;25538;48.392;9.976;2022-07-23T15:18:53;29.40;99.90
39865;DHT22;25538;48.392;9.976;2022-07-23T15:21:19;29.00;99.90
39865;DHT22;25538;48.392;9.976;2022-07-23T15:23:45;28.30;99.90
39865;DHT22;25538;48.392;9.976;2022-07-23T15:26:11;28.00;99.90
39865;DHT22;25538;48.392;9.976;2022-07-23T15:28:37;28.10;99.90
39865;DHT22;25538;48.392;9.976;2022-07-23T15:31:03;27.80;99.90
39865;DHT22;25538;48.392;9.976;2022-07-23T15:33:29;27.90;99.90
39865;DHT22;25538;48.392;9.976;2022-07-23T15:35:55;28.20;99.90
39865;DHT22;25538;48.392;9.976;2022-07-23T15:38:24;28.50;99.90
39865;DHT22;25538;48.392;9.976;2022-07-23T15:40:50;28.50;99.90
39865;DHT22;25538;48.392;9.976;2022-07-23T15:43:16;28.40;99.90
39865;DHT22;25538;48.392;9.976;2022-07-23T15:45:42;28.30;99.90
39865;DHT22;25538;48.392;9.976;2022-07-23T15:48:09;28.30;99.90
39865;DHT22;25538;48.392;9.976;2022-07-23T15:50:35;28.00;99.90
39865;DHT22;25538;48.392;9.976;2022-07-23T15:53:01;27.80;99.90
39865;DHT22;25538;48.392;9.976;2022-07-23T15:55:27;27.70;99.90
39865;DHT22;25538;48.392;9.976;2022-07-23T15:57:52;27.70;99.90
39865;DHT22;25538;48.392;9.976;2022-07-23T16:00:18;27.60;99.90
39865;DHT22;25538;48.392;9.976;2022-07-23T16:02:44;27.70;99.90
39865;DHT22;25538;48.392;9.976;2022-07-23T16:05:10;27.80;99.90
39865;DHT22;25538;48.392;9.976;2022-07-23T16:07:37;27.90;99.90
39865;DHT22;25538;48.392;9.976;2022-07-23T16:10:05;27.60;99.90
39865;DHT22;25538;48.392;9.976;2022-07-23T16:12:31;27.20;99.90
39865;DHT22;25538;48.392;9.976;2022-07-23T16:14:57;27.00;99.90
39865;DHT22;25538;48.392;9.976;2022-07-23T16:17:23;26.90;99.90
39865;DHT22;25538;48.392;9.976;2022-07-23T16:19:49;26.90;99.90
39865;DHT22;25538;48.392;9.976;2022-07-23T16:22:14;26.90;99.90
39865;DHT22;25538;48.392;9.976;2022-07-23T16:24:42;27.00;99.90
39865;DHT22;25538;48.392;9.976;2022-07-23T16:27:08;26.90;99.90